Terminal Aerodrome Forecast
Issued by NWS

Home | Current Version | Previous Version | Text Only | Print | Product List | Glossary On
Versions: 1 2 3 4 5 6 7 8 9 10 11 12 13
000
FTUS46 KSEW 030535
TAFOLM
TAF
KOLM 030535Z 0306/0406 22008KT P6SM FEW009 SCT045 OVC050
     FM031600 19007KT P6SM SCT025 BKN035
     FM032200 20010KT 5SM -RA OVC025=

USA.gov is the U.S. government's official web portal to all federal, state and local government web resources and services.